Pulpca — PHMT — position and weather

sailwx.info

Track history (hours):
 
Tides and Currents Weather Stations Pressure Air Temp Water Temp Dewpoint Dewpoint Depression Visibility Wind Speed Wind Dir Waves Ship Positions

Pulpca

Last reported at 2016-Sep-25 00:33 UTC. Time now 2016-Sep-25 03:48 UTC.
Position N 57°40' E 010°58'.

Length 205 m; draft 8.1 m.

Type: Ship (hazmat cat A). MMSI: 245097000.

Date/timePositionNaut miles runAvg speedWind from/ knotsBaromVisibWave heightAir tempDewpointWater temp
2016-Sep-25 00:33N 57°40' E 010°58'18718.7
2016-Sep-24 14:33N 55°37' E 006°44'8620.3
2016-Sep-24 10:20N 54°24' E 005°26'1620.3
2016-Sep-24 09:33N 54°10' E 005°13'12220.1
2016-Sep-24 03:30N 52°23' E 003°35'2619.9
2016-Sep-24 02:13N 51°59' E 003°23'1319.6
2016-Sep-24 01:33N 51°47' E 003°15'1919.4
2016-Sep-24 00:33N 51°29' E 003°03'47 9.3
2016-Sep-23 19:33N 51°15' E 004°14'0 0.1
2016-Sep-23 17:28N 51°15' E 004°14'0 0.0
2016-Sep-23 16:31N 51°15' E 004°14'0 0.0
2016-Sep-23 15:31N 51°15' E 004°14'0 0.0
2016-Sep-23 13:31N 51°15' E 004°14'0 0.0
2016-Sep-23 09:31N 51°15' E 004°14'0 0.0
2016-Sep-23 06:31N 51°15' E 004°14'0 0.0
2016-Sep-23 04:31N 51°15' E 004°14'0 0.0
2016-Sep-23 03:31N 51°15' E 004°14'0 0.0
2016-Sep-23 02:31N 51°15' E 004°14'0 0.0
2016-Sep-23 01:31N 51°15' E 004°14'0 0.0
2016-Sep-23 00:31N 51°15' E 004°14'0 0.0
2016-Sep-22 23:31N 51°15' E 004°14'0 0.0
2016-Sep-22 20:31N 51°15' E 004°14'0 0.0
2016-Sep-22 12:31N 51°15' E 004°14'0 0.0
2016-Sep-22 04:31N 51°15' E 004°14'0 0.0
2016-Sep-22 03:31N 51°15' E 004°14'0 0.0
2016-Sep-22 00:31N 51°15' E 004°14'0 0.0
2016-Sep-21 23:31N 51°15' E 004°14'0 0.0
2016-Sep-21 22:31N 51°15' E 004°14'0 0.0
2016-Sep-21 19:31N 51°15' E 004°14'0 0.0
2016-Sep-21 16:31N 51°15' E 004°14'0 0.0
2016-Sep-21 09:31N 51°15' E 004°14'0 0.0
2016-Sep-21 08:31N 51°15' E 004°14'0 0.0
2016-Sep-21 05:31N 51°15' E 004°14'0 0.0
2016-Sep-21 03:31N 51°15' E 004°14'0 0.0
2016-Sep-21 02:31N 51°15' E 004°14'0 0.0
2016-Sep-20 17:31N 51°15' E 004°14'0 0.0
2016-Sep-20 14:31N 51°15' E 004°14'0 0.0
2016-Sep-20 13:31N 51°15' E 004°14'1 0.4
2016-Sep-20 10:34N 51°16' E 004°15'2 1.0
2016-Sep-20 08:34N 51°16' E 004°18'9 8.8
2016-Sep-20 07:34N 51°24' E 004°12'9 8.9
2016-Sep-20 06:33N 51°24' E 003°57'35 8.8
2016-Sep-20 02:33N 51°46' E 003°13'6218.5
2016-Sep-19 23:12N 52°46' E 003°41'8618.5
2016-Sep-19 18:33N 53°59' E 004°55'20618.7
2016-Sep-19 07:33N 56°55' E 008°04'7518.7
2016-Sep-19 03:33N 57°40' E 009°54'1918.4
2016-Sep-19 02:33N 57°47' E 010°27'3517.7
2016-Sep-19 00:33N 57°30' E 011°24'15517.2
2016-Sep-18 15:34N 54°55' E 010°55'1716.6
2016-Sep-18 14:34N 54°39' E 011°01'8917.7
2016-Sep-18 09:32N 54°58' E 013°32'42020.0
2016-Sep-17 12:33N 59°44' E 023°04'32 2.7
2016-Sep-17 00:33N 59°46' E 024°08'9513.5
2016-Sep-16 17:33N 60°29' E 026°57'0 0.0
2016-Sep-16 15:33N 60°29' E 026°57'0 0.0
2016-Sep-16 12:33N 60°29' E 026°57'0 0.0
2016-Sep-16 09:33N 60°29' E 026°57'0 0.0
2016-Sep-16 07:33N 60°29' E 026°57'0 0.0
2016-Sep-16 03:33N 60°29' E 026°57'0 0.0
2016-Sep-16 02:33N 60°29' E 026°57'0 0.0
2016-Sep-16 00:33N 60°29' E 026°57'0 0.0
2016-Sep-15 22:33N 60°29' E 026°57'0 0.0
2016-Sep-15 21:33N 60°29' E 026°57'0 0.0
2016-Sep-15 20:33N 60°29' E 026°57'0 0.0
2016-Sep-15 18:33N 60°29' E 026°57'0 0.0
2016-Sep-15 12:33N 60°29' E 026°57'0 0.0
2016-Sep-15 11:30N 60°29' E 026°57'1 0.1
2016-Sep-15 04:33N 60°29' E 026°57'1515.1
2016-Sep-15 03:34N 60°19' E 026°35'2512.6
2016-Sep-15 01:33N 60°01' E 027°11'  
Track history (hours):
 
Tides and Currents Weather Stations Pressure Air Temp Water Temp Dewpoint Dewpoint Depression Visibility Wind Speed Wind Dir Waves Ship Positions

Pulpca

Last reported at 2016-Sep-25 00:33 UTC. Time now 2016-Sep-25 03:48 UTC.
Position N 57°40' E 010°58'.

Length 205 m; draft 8.1 m.

Type: Ship (hazmat cat A). MMSI: 245097000.

Date/timePositionNaut miles runAvg speedWind from/ knotsBaromVisibWave heightAir tempDewpointWater temp
2016-Sep-25 00:33N 57°40' E 010°58'18718.7
2016-Sep-24 14:33N 55°37' E 006°44'8620.3
2016-Sep-24 10:20N 54°24' E 005°26'1620.3
2016-Sep-24 09:33N 54°10' E 005°13'12220.1
2016-Sep-24 03:30N 52°23' E 003°35'2619.9
2016-Sep-24 02:13N 51°59' E 003°23'1319.6
2016-Sep-24 01:33N 51°47' E 003°15'1919.4
2016-Sep-24 00:33N 51°29' E 003°03'47 9.3
2016-Sep-23 19:33N 51°15' E 004°14'0 0.1
2016-Sep-23 17:28N 51°15' E 004°14'0 0.0
2016-Sep-23 16:31N 51°15' E 004°14'0 0.0
2016-Sep-23 15:31N 51°15' E 004°14'0 0.0
2016-Sep-23 13:31N 51°15' E 004°14'0 0.0
2016-Sep-23 09:31N 51°15' E 004°14'0 0.0
2016-Sep-23 06:31N 51°15' E 004°14'0 0.0
2016-Sep-23 04:31N 51°15' E 004°14'0 0.0
2016-Sep-23 03:31N 51°15' E 004°14'0 0.0
2016-Sep-23 02:31N 51°15' E 004°14'0 0.0
2016-Sep-23 01:31N 51°15' E 004°14'0 0.0
2016-Sep-23 00:31N 51°15' E 004°14'0 0.0
2016-Sep-22 23:31N 51°15' E 004°14'0 0.0
2016-Sep-22 20:31N 51°15' E 004°14'0 0.0
2016-Sep-22 12:31N 51°15' E 004°14'0 0.0
2016-Sep-22 04:31N 51°15' E 004°14'0 0.0
2016-Sep-22 03:31N 51°15' E 004°14'0 0.0
2016-Sep-22 00:31N 51°15' E 004°14'0 0.0
2016-Sep-21 23:31N 51°15' E 004°14'0 0.0
2016-Sep-21 22:31N 51°15' E 004°14'0 0.0
2016-Sep-21 19:31N 51°15' E 004°14'0 0.0
2016-Sep-21 16:31N 51°15' E 004°14'0 0.0
2016-Sep-21 09:31N 51°15' E 004°14'0 0.0
2016-Sep-21 08:31N 51°15' E 004°14'0 0.0
2016-Sep-21 05:31N 51°15' E 004°14'0 0.0
2016-Sep-21 03:31N 51°15' E 004°14'0 0.0
2016-Sep-21 02:31N 51°15' E 004°14'0 0.0
2016-Sep-20 17:31N 51°15' E 004°14'0 0.0
2016-Sep-20 14:31N 51°15' E 004°14'0 0.0
2016-Sep-20 13:31N 51°15' E 004°14'1 0.4
2016-Sep-20 10:34N 51°16' E 004°15'2 1.0
2016-Sep-20 08:34N 51°16' E 004°18'9 8.8
2016-Sep-20 07:34N 51°24' E 004°12'9 8.9
2016-Sep-20 06:33N 51°24' E 003°57'35 8.8
2016-Sep-20 02:33N 51°46' E 003°13'6218.5
2016-Sep-19 23:12N 52°46' E 003°41'8618.5
2016-Sep-19 18:33N 53°59' E 004°55'20618.7
2016-Sep-19 07:33N 56°55' E 008°04'7518.7
2016-Sep-19 03:33N 57°40' E 009°54'1918.4
2016-Sep-19 02:33N 57°47' E 010°27'3517.7
2016-Sep-19 00:33N 57°30' E 011°24'15517.2
2016-Sep-18 15:34N 54°55' E 010°55'1716.6
2016-Sep-18 14:34N 54°39' E 011°01'8917.7
2016-Sep-18 09:32N 54°58' E 013°32'42020.0
2016-Sep-17 12:33N 59°44' E 023°04'32 2.7
2016-Sep-17 00:33N 59°46' E 024°08'9513.5
2016-Sep-16 17:33N 60°29' E 026°57'0 0.0
2016-Sep-16 15:33N 60°29' E 026°57'0 0.0
2016-Sep-16 12:33N 60°29' E 026°57'0 0.0
2016-Sep-16 09:33N 60°29' E 026°57'0 0.0
2016-Sep-16 07:33N 60°29' E 026°57'0 0.0
2016-Sep-16 03:33N 60°29' E 026°57'0 0.0
2016-Sep-16 02:33N 60°29' E 026°57'0 0.0
2016-Sep-16 00:33N 60°29' E 026°57'0 0.0
2016-Sep-15 22:33N 60°29' E 026°57'0 0.0
2016-Sep-15 21:33N 60°29' E 026°57'0 0.0
2016-Sep-15 20:33N 60°29' E 026°57'0 0.0
2016-Sep-15 18:33N 60°29' E 026°57'0 0.0
2016-Sep-15 12:33N 60°29' E 026°57'0 0.0
2016-Sep-15 11:30N 60°29' E 026°57'1 0.1
2016-Sep-15 04:33N 60°29' E 026°57'1515.1
2016-Sep-15 03:34N 60°19' E 026°35'2512.6
2016-Sep-15 01:33N 60°01' E 027°11'  

Dump ship's entire track history